createdAt,value
2016-04-25T00:00:02.544Z,72.8
2016-04-25T00:00:48.450Z,72.52
2016-04-25T00:01:48.672Z,72.71
2016-04-25T00:02:48.439Z,72.04
2016-04-25T00:03:48.441Z,72.14
2016-04-25T00:04:48.444Z,72.04
2016-04-25T00:05:48.480Z,72.04
2016-04-25T00:06:48.435Z,72.04
2016-04-25T00:07:48.624Z,72.23
2016-04-25T00:08:48.659Z,72.33
2016-04-25T00:09:48.426Z,72.33
2016-04-25T00:10:48.446Z,71.76
2016-04-25T00:11:48.418Z,72.14
2016-04-25T00:12:48.701Z,72.14
2016-04-25T00:13:48.625Z,72.23
2016-04-25T00:14:48.456Z,72.23
2016-04-25T00:15:48.443Z,72.42
2016-04-25T00:16:48.415Z,72.23
2016-04-25T00:17:48.434Z,72.33
2016-04-25T00:18:48.420Z,72.04
2016-04-25T00:19:48.422Z,71.57
2016-04-25T00:20:48.456Z,71.85
2016-04-25T00:22:02.508Z,72.23
2016-04-25T00:22:48.592Z,72.33
2016-04-25T00:23:48.407Z,71.57
2016-04-25T00:24:48.395Z,71.66
2016-04-25T00:25:48.398Z,72.1
2016-04-25T00:26:48.415Z,71.76
2016-04-25T00:27:48.668Z,71.38
2016-04-25T00:28:48.406Z,72
2016-04-25T00:29:48.392Z,71.72
2016-04-25T00:30:48.381Z,72
2016-04-25T00:31:48.383Z,71.15
2016-04-25T00:32:48.386Z,71.15
2016-04-25T00:33:48.373Z,71.34
2016-04-25T00:34:48.406Z,71.62
2016-04-25T00:35:48.378Z,71.62
2016-04-25T00:36:48.427Z,71.53
2016-04-25T00:37:48.587Z,71.91
2016-04-25T00:38:48.386Z,71.81
2016-04-25T00:39:48.358Z,71.81
2016-04-25T00:40:48.360Z,72
2016-04-25T00:41:48.394Z,72.1
2016-04-25T00:42:48.583Z,72.38
2016-04-25T00:43:48.369Z,72.1
2016-04-25T00:44:48.355Z,72
2016-04-25T00:45:48.374Z,72.1
2016-04-25T00:46:48.360Z,72
2016-04-25T00:47:48.583Z,72.29
2016-04-25T00:49:48.525Z,71.91
2016-04-25T00:50:48.340Z,71.91
2016-04-25T00:51:48.312Z,72.19
2016-04-25T00:52:48.329Z,72.19
2016-04-25T00:53:48.536Z,72.1
2016-04-25T00:54:48.788Z,72.29
2016-04-25T00:55:48.323Z,72
2016-04-25T00:56:48.325Z,71.91
2016-04-25T00:57:48.344Z,71.72
2016-04-25T00:58:48.909Z,71.81
2016-04-25T00:59:48.349Z,72
2016-04-25T01:00:48.320Z,72
2016-04-25T01:01:48.306Z,72.29
2016-04-25T01:02:48.294Z,72.19
2016-04-25T01:03:48.298Z,72.29
2016-04-25T01:04:48.284Z,72.29
2016-04-25T01:05:48.490Z,72.19
2016-04-25T01:06:48.320Z,72.29
2016-04-25T01:07:48.323Z,72.19
2016-04-25T01:08:48.279Z,72
2016-04-25T01:09:48.486Z,72.19
2016-04-25T01:10:48.284Z,72.29
2016-04-25T01:11:48.521Z,72.29
2016-04-25T01:12:48.821Z,72.29
2016-04-25T01:13:48.261Z,72.29
2016-04-25T01:14:48.467Z,72.1
2016-04-25T01:15:48.719Z,72.29
2016-04-25T01:16:48.457Z,72.19
2016-04-25T01:17:48.257Z,72.57
2016-04-25T01:18:48.291Z,72.38
2016-04-25T01:19:48.668Z,72.57
2016-04-25T01:20:48.249Z,72.38
2016-04-25T01:21:48.470Z,72.38
2016-04-25T01:22:48.427Z,72.29
2016-04-25T01:23:48.241Z,72.67
2016-04-25T01:24:48.243Z,72.29
2016-04-25T01:25:48.278Z,72.86
2016-04-25T01:26:48.702Z,72
2016-04-25T01:27:48.221Z,72.19
2016-04-25T01:28:48.255Z,72.67
2016-04-25T01:29:48.429Z,72.1
2016-04-25T01:30:48.245Z,72.1
2016-04-25T01:31:48.420Z,72.19
2016-04-25T01:32:48.234Z,72.1
2016-04-25T01:33:48.221Z,72
2016-04-25T01:34:48.209Z,72.38
2016-04-25T01:35:48.445Z,72
2016-04-25T01:37:02.295Z,72.48
2016-04-25T01:37:48.201Z,72
2016-04-25T01:38:48.219Z,72.48
2016-04-25T01:39:48.206Z,72
2016-04-25T01:40:48.194Z,71.91
2016-04-25T01:41:48.197Z,72.57
2016-04-25T01:42:49.636Z,72.29
2016-04-25T01:43:47.732Z,72.38
2016-04-25T01:44:48.219Z,71.81
2016-04-25T01:45:48.175Z,72.29
2016-04-25T01:46:48.428Z,72.48
2016-04-25T01:47:48.166Z,72.38
2016-04-25T01:48:48.199Z,72.38
2016-04-25T01:49:48.171Z,72.19
2016-04-25T01:51:48.160Z,72.38
2016-04-25T01:52:48.163Z,72.29
2016-04-25T01:53:48.166Z,72.38
2016-04-25T01:54:48.185Z,72
2016-04-25T01:55:48.140Z,72.48
2016-04-25T01:56:48.174Z,72.48
2016-04-25T01:57:48.535Z,72
2016-04-25T01:58:48.148Z,72
2016-04-25T01:59:48.151Z,72.1
2016-04-25T02:00:48.153Z,72.19
2016-04-25T02:01:48.141Z,72.38
2016-04-25T02:02:48.128Z,72.29
2016-04-25T02:03:48.115Z,72.38
2016-04-25T02:04:47.976Z,71.91
2016-04-25T02:05:48.120Z,72.29
2016-04-25T02:06:48.123Z,72.29
2016-04-25T02:07:48.126Z,72.67
2016-04-25T02:08:48.112Z,72
2016-04-25T02:09:48.115Z,72.29
2016-04-25T02:10:48.102Z,72.19
2016-04-25T02:11:48.309Z,72.29
2016-04-25T02:12:48.936Z,72
2016-04-25T02:13:48.110Z,72
2016-04-25T02:14:48.097Z,72.1
2016-04-25T02:15:48.116Z,71.78
2016-04-25T02:16:48.291Z,71.88
2016-04-25T02:17:48.293Z,72.44
2016-04-25T02:18:48.124Z,72.44
2016-04-25T02:19:48.079Z,72.82
2016-04-25T02:20:48.301Z,72.53
2016-04-25T02:21:48.117Z,72.92
2016-04-25T02:22:48.932Z,73.01
2016-04-25T02:23:48.324Z,73.11
2016-04-25T02:24:48.077Z,73.01
2016-04-25T02:25:48.282Z,73.01
2016-04-25T02:26:48.052Z,73.2
2016-04-25T02:27:47.914Z,72.82
2016-04-25T02:28:48.056Z,73.11
2016-04-25T02:29:48.076Z,72.63
2016-04-25T02:30:48.046Z,73.11
2016-04-25T02:31:48.049Z,73.58
2016-04-25T02:32:48.084Z,73.3
2016-04-25T02:33:48.243Z,73.2
2016-04-25T02:34:48.027Z,73.86
2016-04-25T02:36:48.031Z,73.86
2016-04-25T02:37:48.472Z,73.58
2016-04-25T02:38:48.020Z,73.39
2016-04-25T02:39:48.195Z,73.58
2016-04-25T02:40:48.012Z,73.58
2016-04-25T02:41:48.404Z,73.77
2016-04-25T02:43:48.238Z,73.58
2016-04-25T02:44:48.006Z,73.58
2016-04-25T02:45:47.994Z,73.58
2016-04-25T02:46:48.215Z,73.2
2016-04-25T02:47:48.030Z,73.58
2016-04-25T02:48:48.002Z,73.01
2016-04-25T02:49:47.973Z,72.53
2016-04-25T02:50:47.991Z,73.01
2016-04-25T02:51:47.963Z,72.73
2016-04-25T02:52:48.169Z,72.63
2016-04-25T02:53:47.968Z,72.73
2016-04-25T02:54:47.955Z,72.73
2016-04-25T02:55:47.957Z,73.01
2016-04-25T02:56:47.992Z,72.82
2016-04-25T02:57:48.401Z,72.73
2016-04-25T02:58:47.950Z,72.92
2016-04-25T02:59:47.953Z,72.82
2016-04-25T03:01:47.927Z,73.01
2016-04-25T03:02:47.976Z,73.39
2016-04-25T03:03:47.933Z,73.3
2016-04-25T03:04:47.935Z,73.49
2016-04-25T03:05:47.922Z,73.68
2016-04-25T03:07:02.207Z,73.58
2016-04-25T03:07:48.178Z,73.49
2016-04-25T03:08:48.133Z,73.3
2016-04-25T03:09:47.761Z,73.39
2016-04-25T03:10:48.107Z,73.77
2016-04-25T03:11:47.892Z,73.58
2016-04-25T03:12:48.472Z,73.39
2016-04-25T03:13:48.115Z,73.58
2016-04-25T03:14:47.884Z,73.58
2016-04-25T03:15:47.902Z,73.39
2016-04-25T03:16:47.873Z,73.58
2016-04-25T03:17:47.908Z,73.49
2016-04-25T03:18:47.863Z,73.58
2016-04-25T03:19:47.867Z,73.3
2016-04-25T03:20:47.869Z,73.3
2016-04-25T03:21:47.965Z,73.3
2016-04-25T03:22:47.858Z,73.58
2016-04-25T03:23:47.846Z,73.3
2016-04-25T03:24:47.848Z,73.39
2016-04-25T03:25:47.882Z,73.77
2016-04-25T03:26:47.838Z,73.68
2016-04-25T03:27:48.622Z,73.58
2016-04-25T03:29:01.921Z,73.58
2016-04-25T03:29:48.033Z,73.39
2016-04-25T03:30:47.832Z,73.58
2016-04-25T03:31:47.867Z,73.58
2016-04-25T03:32:47.824Z,73.58
2016-04-25T03:33:47.825Z,73.58
2016-04-25T03:34:47.829Z,73.39
2016-04-25T03:35:48.034Z,73.39
2016-04-25T03:36:47.802Z,73.49
2016-04-25T03:37:48.009Z,73.77
2016-04-25T03:38:47.807Z,73.58
2016-04-25T03:39:47.826Z,73.86
2016-04-25T03:40:47.797Z,73.96
2016-04-25T03:41:48.019Z,73.58
2016-04-25T03:42:47.334Z,73.39
2016-04-25T03:43:47.743Z,73.2
2016-04-25T03:44:47.792Z,73.49
2016-04-25T03:45:47.811Z,73.49
2016-04-25T03:46:47.767Z,73.49
2016-04-25T03:47:47.770Z,73.77
2016-04-25T03:48:47.788Z,73.77
2016-04-25T03:49:47.775Z,73.58
2016-04-25T03:50:47.794Z,72.92
2016-04-25T03:51:47.952Z,73.01
2016-04-25T03:52:47.767Z,72.82
2016-04-25T03:53:47.755Z,72.63
2016-04-25T03:56:01.838Z,72.82
2016-04-25T03:56:47.747Z,72.92
2016-04-25T03:57:48.250Z,72.53
2016-04-25T03:58:47.580Z,72.44
2016-04-25T03:59:47.723Z,72.73
2016-04-25T04:00:47.726Z,72.82
2016-04-25T04:01:47.261Z,73.2
2016-04-25T04:03:47.718Z,73.2
2016-04-25T04:04:47.752Z,72.73
2016-04-25T04:05:47.724Z,73.11
2016-04-25T04:06:47.712Z,72.82
2016-04-25T04:07:47.245Z,72.82
2016-04-25T04:08:47.904Z,72.44
2016-04-25T04:09:47.704Z,72.63
2016-04-25T04:10:47.691Z,72.63
2016-04-25T04:11:47.225Z,72.73
2016-04-25T04:12:47.586Z,72.06
2016-04-25T04:14:47.702Z,72.06
2016-04-25T04:15:47.720Z,72.06
2016-04-25T04:17:01.754Z,71.97
2016-04-25T04:17:47.662Z,72.16
2016-04-25T04:19:47.668Z,71.97
2016-04-25T04:20:47.842Z,72.06
2016-04-25T04:21:47.503Z,72.16
2016-04-25T04:22:47.661Z,71.78
2016-04-25T04:23:47.679Z,72.34
2016-04-25T04:24:47.869Z,72.06
2016-04-25T04:25:48.059Z,72.73
2016-04-25T04:26:47.624Z,72.25
2016-04-25T04:27:47.644Z,71.97
2016-04-25T04:29:47.617Z,72.34
2016-04-25T04:30:48.244Z,72.06
2016-04-25T04:31:47.825Z,72.53
2016-04-25T04:32:47.624Z,72.25
2016-04-25T04:33:47.613Z,72.34
2016-04-25T04:34:47.646Z,72.25
2016-04-25T04:35:47.602Z,71.88
2016-04-25T04:36:47.588Z,71.78
2016-04-25T04:37:47.623Z,71.97
2016-04-25T04:38:47.594Z,71.97
2016-04-25T04:39:47.596Z,71.88
2016-04-25T04:40:47.787Z,71.97
2016-04-25T04:41:47.790Z,71.97
2016-04-25T04:42:48.027Z,71.97
2016-04-25T04:43:47.920Z,72.34
2016-04-25T04:44:47.564Z,72.25
2016-04-25T04:45:47.597Z,71.88
2016-04-25T04:46:47.570Z,71.97
2016-04-25T04:47:47.556Z,72.25
2016-04-25T04:48:47.575Z,72.06
2016-04-25T04:49:47.545Z,71.97
2016-04-25T04:50:47.564Z,72.16
2016-04-25T04:51:47.567Z,72.34
2016-04-25T04:53:47.556Z,71.97
2016-04-25T04:54:47.559Z,71.97
2016-04-25T04:55:47.530Z,72
2016-04-25T04:56:47.533Z,71.97
2016-04-25T04:57:48.114Z,72.29
2016-04-25T04:58:47.835Z,72.1
2016-04-25T04:59:47.525Z,71.91
2016-04-25T05:00:47.528Z,72.19
2016-04-25T05:01:47.516Z,72.19
2016-04-25T05:02:47.518Z,72.1
2016-04-25T05:03:47.505Z,72
2016-04-25T05:05:01.586Z,72.19
2016-04-25T05:05:47.542Z,72.19
2016-04-25T05:06:47.498Z,72.1
2016-04-25T05:07:47.501Z,72.38
2016-04-25T05:08:47.487Z,71.91
2016-04-25T05:09:47.693Z,72
2016-04-25T05:11:47.699Z,71.81
2016-04-25T05:12:47.534Z,71.15
2016-04-25T05:13:47.799Z,71.34
2016-04-25T05:14:47.612Z,71.15
2016-04-25T05:15:47.861Z,71.44
2016-04-25T05:16:47.705Z,71.53
2016-04-25T05:17:47.714Z,71.34
2016-04-25T05:19:47.751Z,71.34
2016-04-25T05:20:47.942Z,71.53
2016-04-25T05:21:47.788Z,71.34
2016-04-25T05:22:47.782Z,71.15
2016-04-25T05:23:47.994Z,71.34
2016-04-25T05:24:47.816Z,71.44
2016-04-25T05:25:47.980Z,71.34
2016-04-25T05:26:47.785Z,71.25
2016-04-25T05:27:47.759Z,71.62
2016-04-25T05:28:49.248Z,71.53
2016-04-25T05:29:47.768Z,71.34
2016-04-25T05:30:47.774Z,70.87
2016-04-25T05:31:47.778Z,71.06
2016-04-25T05:32:47.765Z,70.68
2016-04-25T05:33:47.972Z,70.3
2016-04-25T05:34:47.756Z,70.3
2016-04-25T05:35:47.776Z,70.49
2016-04-25T05:36:47.763Z,70.2
2016-04-25T05:37:47.752Z,70.58
2016-04-25T05:38:47.957Z,70.49
2016-04-25T05:39:47.758Z,70.78
2016-04-25T05:40:47.776Z,70.3
2016-04-25T05:41:47.748Z,70.39
2016-04-25T05:42:47.969Z,70.78
2016-04-25T05:43:47.957Z,70.3
2016-04-25T05:44:47.756Z,70.53
2016-04-25T05:46:47.949Z,70.53
2016-04-25T05:47:47.780Z,70.62
2016-04-25T05:48:47.470Z,70.15
2016-04-25T05:49:47.942Z,70.53
2016-04-25T05:50:47.725Z,70.24
2016-04-25T05:51:47.727Z,69.57
2016-04-25T05:52:47.731Z,69.1
2016-04-25T05:53:47.718Z,69.38
2016-04-25T05:54:47.720Z,69.57
2016-04-25T05:55:47.927Z,69.86
2016-04-25T05:56:47.726Z,68.82
2016-04-25T05:57:47.744Z,69.2
2016-04-25T05:58:48.247Z,69.67
2016-04-25T05:59:47.734Z,69.2
2016-04-25T06:00:47.721Z,69.77
2016-04-25T06:01:47.910Z,69.86
2016-04-25T06:02:47.711Z,68.91
2016-04-25T06:03:48.104Z,69.38
2016-04-25T06:04:47.715Z,68.85
2016-04-25T06:05:47.719Z,69.04
2016-04-25T06:06:47.706Z,68.85
2016-04-25T06:08:01.787Z,68.29
2016-04-25T06:08:47.696Z,68.76
2016-04-25T06:09:47.698Z,68.76
2016-04-25T06:10:47.701Z,68
2016-04-25T06:11:47.703Z,68.29
2016-04-25T06:13:01.800Z,68.38
2016-04-25T06:13:47.709Z,68.19
2016-04-25T06:14:47.696Z,67.9
2016-04-25T06:15:47.698Z,67.81
2016-04-25T06:16:47.717Z,67.81
2016-04-25T06:17:47.689Z,68.19
2016-04-25T06:18:47.738Z,68.38
2016-04-25T06:19:47.709Z,68.76
2016-04-25T06:20:47.697Z,68.66
2016-04-25T06:21:47.683Z,68.76
2016-04-25T06:22:47.687Z,68.29
2016-04-25T06:24:47.692Z,68.66
2016-04-25T06:25:47.680Z,68.29
2016-04-25T06:26:47.683Z,68.19
2016-04-25T06:27:47.701Z,68.19
2016-04-25T06:28:47.531Z,68.29
2016-04-25T06:29:48.347Z,68.1
2016-04-25T06:30:47.709Z,67.43
2016-04-25T06:32:01.992Z,67.62
2016-04-25T06:32:46.917Z,68
2016-04-25T06:33:47.670Z,67.62
2016-04-25T06:34:47.672Z,67.43
2016-04-25T06:35:47.676Z,68.1
2016-04-25T06:36:47.678Z,67.62
2016-04-25T06:37:47.680Z,67.43
2016-04-25T06:38:47.700Z,67.52
2016-04-25T06:39:47.670Z,67.81
2016-04-25T06:40:47.674Z,67.27
2016-04-25T06:41:47.691Z,67.37
2016-04-25T06:42:47.897Z,66.77
2016-04-25T06:43:48.134Z,67.37
2016-04-25T06:44:48.091Z,67.33
2016-04-25T06:45:47.687Z,66.96
2016-04-25T06:46:47.674Z,67.33
2016-04-25T06:47:47.910Z,67.43
2016-04-25T06:48:47.680Z,67.33
2016-04-25T06:49:47.900Z,66.86
2016-04-25T06:50:47.669Z,67.05
2016-04-25T06:51:47.687Z,67.05
2016-04-25T06:53:01.971Z,67.05
2016-04-25T06:53:47.676Z,67.14
2016-04-25T06:54:47.665Z,67.43
2016-04-25T06:55:47.870Z,66.86
2016-04-25T06:57:47.672Z,66.2
2016-04-25T06:58:47.675Z,66.86
2016-04-25T07:00:01.772Z,66.67
2016-04-25T07:00:47.212Z,66.58
2016-04-25T07:02:47.685Z,66.8
2016-04-25T07:03:47.657Z,66.67
2016-04-25T07:04:47.660Z,66.29
2016-04-25T07:05:47.678Z,66.48
2016-04-25T07:06:47.681Z,66.96
2016-04-25T07:07:48.074Z,66.48
2016-04-25T07:08:47.671Z,66.8
2016-04-25T07:09:47.674Z,66.86
2016-04-25T07:11:47.663Z,66.86
2016-04-25T07:12:47.666Z,66.67
2016-04-25T07:13:47.918Z,67.05
2016-04-25T07:14:47.655Z,66.67
2016-04-25T07:15:47.658Z,66.67
2016-04-25T07:16:47.660Z,66.86
2016-04-25T07:17:47.866Z,66.67
2016-04-25T07:18:47.869Z,66.48
2016-04-25T07:19:47.654Z,66.77
2016-04-25T07:20:48.093Z,66.86
2016-04-25T07:21:47.659Z,66.86
2016-04-25T07:22:47.661Z,67.05
2016-04-25T07:23:47.648Z,67.43
2016-04-25T07:24:47.698Z,67.05
2016-04-25T07:25:47.888Z,67.52
2016-04-25T07:26:47.672Z,67.52
2016-04-25T07:28:47.912Z,67.52
2016-04-25T07:29:47.648Z,67.62
2016-04-25T07:30:47.667Z,67.71
2016-04-25T07:31:47.717Z,67.81
2016-04-25T07:32:47.642Z,67.62
2016-04-25T07:33:47.691Z,68
2016-04-25T07:34:47.647Z,67.33
2016-04-25T07:35:47.634Z,67.52
2016-04-25T07:36:47.652Z,67.81
2016-04-25T07:37:47.889Z,67.9
2016-04-25T07:38:47.641Z,67.81
2016-04-25T07:39:47.864Z,68
2016-04-25T07:40:47.678Z,68
2016-04-25T07:41:47.197Z,67.71
2016-04-25T07:42:47.637Z,67.43
2016-04-25T07:43:48.202Z,67.14
2016-04-25T07:44:47.626Z,67.33
2016-04-25T07:45:47.630Z,67.52
2016-04-25T07:46:47.663Z,67.43
2016-04-25T07:47:48.057Z,67.05
2016-04-25T07:48:47.653Z,67.05
2016-04-25T07:49:47.640Z,67.43
2016-04-25T07:50:47.862Z,67.52
2016-04-25T07:51:47.645Z,67.08
2016-04-25T07:52:47.649Z,66.33
2016-04-25T07:53:47.667Z,67.08
2016-04-25T07:54:47.638Z,66.71
2016-04-25T07:55:47.626Z,66.8
2016-04-25T07:56:47.643Z,66.23
2016-04-25T07:57:47.645Z,65.85
2016-04-25T07:58:49.587Z,65.47
2016-04-25T07:59:47.636Z,65.28
2016-04-25T08:00:47.639Z,64.94
2016-04-25T08:01:47.642Z,64.84
2016-04-25T08:02:47.628Z,64.94
2016-04-25T08:03:47.631Z,65.12
2016-04-25T08:04:47.618Z,64.46
2016-04-25T08:05:47.636Z,63.7
2016-04-25T08:06:47.623Z,62.94
2016-04-25T08:07:47.642Z,61.99
2016-04-25T08:08:47.628Z,61.99
2016-04-25T08:09:47.631Z,62.75
2016-04-25T08:10:47.634Z,62.75
2016-04-25T08:11:47.841Z,62.37
2016-04-25T08:12:47.648Z,62.66
2016-04-25T08:13:47.745Z,61.9
2016-04-25T08:14:47.654Z,61.33
2016-04-25T08:15:47.641Z,61.61
2016-04-25T08:16:47.674Z,62.56
2016-04-25T08:17:47.631Z,63.35
2016-04-25T08:18:47.633Z,62.78
2016-04-25T08:19:47.652Z,62.21
2016-04-25T08:20:47.404Z,62.4
2016-04-25T08:21:47.641Z,62.12
2016-04-25T08:22:47.645Z,60.98
2016-04-25T08:23:47.648Z,60.98
2016-04-25T08:24:47.650Z,60.88
2016-04-25T08:25:47.637Z,60.88
2016-04-25T08:26:47.640Z,60.88
2016-04-25T08:27:47.642Z,59.84
2016-04-25T08:28:47.520Z,59.55
2016-04-25T08:29:47.664Z,59.65
2016-04-25T08:30:48.073Z,59.93
2016-04-25T08:32:47.672Z,60.31
2016-04-25T08:33:47.690Z,59.27
2016-04-25T08:34:47.678Z,59.65
2016-04-25T08:35:47.696Z,60.03
2016-04-25T08:36:47.667Z,59.93
2016-04-25T08:37:47.701Z,59.74
2016-04-25T08:38:47.672Z,58.92
2016-04-25T08:39:48.238Z,57.68
2016-04-25T08:40:47.885Z,57.87
2016-04-25T08:41:47.920Z,57.02
2016-04-25T08:42:47.704Z,57.59
2016-04-25T08:43:47.971Z,55.4
2016-04-25T08:44:47.679Z,56.35
2016-04-25T08:45:47.681Z,56.54
2016-04-25T08:46:47.684Z,56.16
2016-04-25T08:47:47.686Z,54.55
2016-04-25T08:48:47.689Z,55.3
2016-04-25T08:49:47.707Z,54.83
2016-04-25T08:50:47.803Z,54.45
2016-04-25T08:52:01.806Z,55.11
2016-04-25T08:52:47.934Z,55.3
2016-04-25T08:53:47.702Z,54.55
2016-04-25T08:54:47.720Z,55.21
2016-04-25T08:55:47.723Z,55.97
2016-04-25T08:56:47.725Z,55.21
2016-04-25T08:57:47.728Z,54.83
2016-04-25T08:58:48.325Z,54.17
2016-04-25T08:59:47.719Z,54.83
2016-04-25T09:00:47.721Z,55.02
2016-04-25T09:01:47.770Z,55.4
2016-04-25T09:02:47.882Z,55.78
2016-04-25T09:03:47.744Z,55.59
2016-04-25T09:04:47.732Z,55.3
2016-04-25T09:05:47.735Z,55.02
2016-04-25T09:06:47.924Z,55.02
2016-04-25T09:07:47.771Z,54.55
2016-04-25T09:08:47.993Z,55.21
2016-04-25T09:09:47.746Z,55.78
2016-04-25T09:10:48.076Z,55.88
2016-04-25T09:11:47.751Z,56.07
2016-04-25T09:12:47.753Z,56.16
2016-04-25T09:13:48.193Z,55.3
2016-04-25T09:14:47.946Z,54.83
2016-04-25T09:15:47.948Z,55.5
2016-04-25T09:16:47.955Z,55.3
2016-04-25T09:17:47.802Z,55.97
2016-04-25T09:19:02.180Z,55.81
2016-04-25T09:19:47.291Z,55.62
2016-04-25T09:20:47.763Z,55.62
2016-04-25T09:21:47.782Z,54.57
2016-04-25T09:22:47.941Z,54.93
2016-04-25T09:23:47.787Z,55.81
2016-04-25T09:24:48.415Z,55.52
2016-04-25T09:25:47.807Z,54.96
2016-04-25T09:26:47.779Z,51.34
2016-04-25T09:27:47.782Z,51.34
2016-04-25T09:28:49.254Z,52.22
2016-04-25T09:29:47.678Z,52.32
2016-04-25T09:30:47.806Z,50.99
2016-04-25T09:31:47.808Z,50.32
2016-04-25T09:32:47.968Z,51.37
2016-04-25T09:33:47.814Z,49.65
2016-04-25T09:34:47.831Z,50.6
2016-04-25T09:35:48.022Z,51.37
2016-04-25T09:36:48.040Z,52.22
2016-04-25T09:37:47.825Z,50.23
2016-04-25T09:38:47.827Z,51.27
2016-04-25T09:39:47.814Z,49.46
2016-04-25T09:40:47.848Z,50.32
2016-04-25T09:41:47.881Z,49.91
2016-04-25T09:42:50.884Z,49.44
2016-04-25T09:43:48.387Z,48.58
2016-04-25T09:44:48.093Z,48.96
2016-04-25T09:45:47.877Z,49.63
2016-04-25T09:46:47.099Z,48.39
2016-04-25T09:47:47.852Z,47.25
2016-04-25T09:48:47.854Z,48.39
2016-04-25T09:49:48.044Z,49.15
2016-04-25T09:50:47.860Z,48.77
2016-04-25T09:51:47.846Z,49.15
2016-04-25T09:52:47.865Z,48.8
2016-04-25T09:53:47.882Z,49.94
2016-04-25T09:54:47.901Z,48.61
2016-04-25T09:55:47.748Z,47.37
2016-04-25T09:56:48.110Z,48.61
2016-04-25T09:57:47.893Z,46.8
2016-04-25T09:58:47.896Z,46.89
2016-04-25T09:59:47.899Z,46.99
2016-04-25T10:00:47.887Z,45
2016-04-25T10:01:47.904Z,45
2016-04-25T10:02:48.126Z,44.04
2016-04-25T10:03:47.925Z,43.09
2016-04-25T10:04:48.131Z,42.9
2016-04-25T10:05:47.915Z,43.09
2016-04-25T10:06:47.918Z,43.09
2016-04-25T10:07:47.967Z,41.95
2016-04-25T10:08:47.923Z,43.19
2016-04-25T10:09:47.957Z,43.09
2016-04-25T10:10:47.976Z,42.61
2016-04-25T10:11:47.181Z,40.62
2016-04-25T10:12:47.949Z,41
2016-04-25T10:14:02.031Z,43.38
2016-04-25T10:14:47.987Z,43.76
2016-04-25T10:15:48.364Z,43.28
2016-04-25T10:16:47.961Z,41.69
2016-04-25T10:17:47.963Z,39.69
2016-04-25T10:18:47.966Z,40.54
2016-04-25T10:19:47.969Z,38.92
2016-04-25T10:20:48.191Z,39.4
2016-04-25T10:21:47.958Z,41.3
2016-04-25T10:22:47.991Z,41.3
2016-04-25T10:23:48.182Z,38.17
2016-04-25T10:24:47.982Z,37.59
2016-04-25T10:25:48.204Z,38.73
2016-04-25T10:26:48.035Z,38.26
2016-04-25T10:27:48.193Z,37.59
2016-04-25T10:28:48.618Z,37.02
2016-04-25T10:29:49.168Z,38.17
2016-04-25T10:30:48.014Z,37.78
2016-04-25T10:31:48.069Z,37.97
2016-04-25T10:33:02.102Z,38.35
2016-04-25T10:33:48.059Z,39.31
2016-04-25T10:34:48.222Z,39.69
2016-04-25T10:35:48.262Z,39.12
2016-04-25T10:36:48.186Z,40.45
2016-04-25T10:37:48.064Z,41.11
2016-04-25T10:38:48.067Z,41.66
2016-04-25T10:39:48.085Z,42.44
2016-04-25T10:40:48.245Z,43.02
2016-04-25T10:41:48.075Z,43.02
2016-04-25T10:42:48.061Z,43.76
2016-04-25T10:43:48.580Z,44.04
2016-04-25T10:44:48.770Z,43.97
2016-04-25T10:45:47.304Z,44.82
2016-04-25T10:46:48.072Z,45.11
2016-04-25T10:47:48.091Z,45.4
2016-04-25T10:48:48.078Z,45.4
2016-04-25T10:49:48.097Z,45.21
2016-04-25T10:50:48.083Z,45.3
2016-04-25T10:51:48.086Z,45.01
2016-04-25T10:52:48.088Z,44.92
2016-04-25T10:53:48.091Z,44.26
2016-04-25T10:54:48.515Z,44.54
2016-04-25T10:55:48.113Z,44.18
2016-04-25T10:56:48.115Z,40.94
2016-04-25T10:57:48.118Z,39.42
2016-04-25T10:58:49.135Z,40.47
2016-04-25T10:59:48.452Z,40.56
2016-04-25T11:01:48.332Z,40.39
2016-04-25T11:02:48.334Z,40.39
2016-04-25T11:03:48.149Z,39.25
2016-04-25T11:04:48.371Z,38.68
2016-04-25T11:05:48.170Z,37.04
2016-04-25T11:06:48.157Z,38.18
2016-04-25T11:07:48.176Z,38.75
2016-04-25T11:08:48.179Z,40.75
2016-04-25T11:09:48.197Z,40.56
2016-04-25T11:10:48.184Z,40.56
2016-04-25T11:11:48.218Z,38.95
2016-04-25T11:12:48.845Z,38.66
2016-04-25T11:13:48.191Z,39.59
2016-04-25T11:14:48.117Z,40.35
2016-04-25T11:15:48.588Z,40.35
2016-04-25T11:16:48.247Z,41.4
2016-04-25T11:17:48.469Z,39.78
2016-04-25T11:18:48.237Z,39.78
2016-04-25T11:19:48.380Z,40.35
2016-04-25T11:20:48.242Z,40.45
2016-04-25T11:21:48.261Z,40.06
2016-04-25T11:22:48.435Z,40.45
2016-04-25T11:23:48.094Z,39.97
2016-04-25T11:24:48.096Z,40.92
2016-04-25T11:25:48.583Z,42.07
2016-04-25T11:26:48.289Z,41.78
2016-04-25T11:27:48.261Z,41.42
2016-04-25T11:28:49.499Z,39.23
2016-04-25T11:29:48.251Z,38.56
2016-04-25T11:30:48.269Z,39.04
2016-04-25T11:31:48.335Z,39.32
2016-04-25T11:32:48.524Z,37.52
2016-04-25T11:33:48.277Z,38.66
2016-04-25T11:34:47.842Z,39.8
2016-04-25T11:35:47.829Z,38.66
2016-04-25T11:36:48.316Z,36.57
2016-04-25T11:37:48.303Z,37.71
2016-04-25T11:38:48.509Z,36.76
2016-04-25T11:39:48.309Z,35.13
2016-04-25T11:40:48.326Z,36.57
2016-04-25T11:41:48.329Z,36.94
2016-04-25T11:42:48.332Z,37.13
2016-04-25T11:43:48.366Z,37.71
2016-04-25T11:44:48.337Z,37.52
2016-04-25T11:45:48.356Z,37.04
2016-04-25T11:46:48.359Z,38.09
2016-04-25T11:47:48.366Z,38.75
2016-04-25T11:48:48.358Z,38.18
2016-04-25T11:49:48.392Z,37.13
2016-04-25T11:50:48.411Z,37.13
2016-04-25T11:51:48.507Z,37.61
2016-04-25T11:52:48.405Z,35.35
2016-04-25T11:53:48.407Z,34.38
2016-04-25T11:54:48.410Z,34.94
2016-04-25T11:55:48.648Z,35.53
2016-04-25T11:56:48.463Z,37.06
2016-04-25T11:57:48.404Z,35.35
2016-04-25T11:58:48.812Z,34.87
2016-04-25T11:59:48.752Z,31.92
2016-04-25T12:00:48.473Z,31.44
2016-04-25T12:01:48.461Z,31.8
2016-04-25T12:02:48.432Z,31.04
2016-04-25T12:03:48.482Z,32.95
2016-04-25T12:04:48.437Z,34.94
2016-04-25T12:06:02.581Z,36.66
2016-04-25T12:06:48.458Z,36.58
2016-04-25T12:07:48.477Z,36.58
2016-04-25T12:08:48.511Z,36.49
2016-04-25T12:09:48.608Z,34.2
2016-04-25T12:10:48.500Z,34.18
2016-04-25T12:11:48.503Z,35.04
2016-04-25T12:12:48.694Z,36.08
2016-04-25T12:13:48.805Z,35.72
2016-04-25T12:14:48.371Z,34.56
2016-04-25T12:16:48.501Z,34.18
2016-04-25T12:17:48.504Z,35.61
2016-04-25T12:18:48.960Z,36.76
2016-04-25T12:19:48.510Z,36.85
2016-04-25T12:20:48.105Z,35.99
2016-04-25T12:21:48.530Z,35.23
2016-04-25T12:22:48.736Z,34.47
2016-04-25T12:23:48.551Z,34.94
2016-04-25T12:24:48.554Z,35.99
2016-04-25T12:25:48.760Z,35.04
2016-04-25T12:26:48.637Z,36.37
2016-04-25T12:27:48.187Z,35.71
2016-04-25T12:28:48.815Z,34.38
2016-04-25T12:29:48.599Z,34.66
2016-04-25T12:31:48.823Z,35.72
2016-04-25T12:32:48.576Z,35.15
2016-04-25T12:33:48.578Z,35.63
2016-04-25T12:34:48.925Z,35.72
2016-04-25T12:35:48.598Z,35.64
2016-04-25T12:36:48.805Z,34.5
2016-04-25T12:37:48.620Z,34.79
2016-04-25T12:38:48.622Z,34.12
2016-04-25T12:39:48.625Z,31.28
2016-04-25T12:40:48.659Z,33.95
2016-04-25T12:41:48.662Z,34.33
2016-04-25T12:42:48.649Z,33
2016-04-25T12:43:48.683Z,33.09
2016-04-25T12:44:48.936Z,29.48
2016-04-25T12:45:48.922Z,30.53
2016-04-25T12:46:48.911Z,32.06
2016-04-25T12:47:48.663Z,33.2
2016-04-25T12:48:48.696Z,31.87
2016-04-25T12:49:48.716Z,30.82
2016-04-25T12:50:48.686Z,31.58
2016-04-25T12:51:48.688Z,29.19
2016-04-25T12:52:48.957Z,28.43
2016-04-25T12:53:48.726Z,29.48
2016-04-25T12:54:48.728Z,29.86
2016-04-25T12:55:48.982Z,29.1
2016-04-25T12:56:48.723Z,29.86
2016-04-25T12:57:48.757Z,30.82
2016-04-25T12:58:48.948Z,30.8
2016-04-25T12:59:48.793Z,29.85
2016-04-25T13:00:48.781Z,30.23
2016-04-25T13:01:49.002Z,29.94
2016-04-25T13:02:48.989Z,29.85
2016-04-25T13:03:48.789Z,30.52
2016-04-25T13:05:48.825Z,31.76
2016-04-25T13:06:48.640Z,32.23
2016-04-25T13:07:48.831Z,32.92
2016-04-25T13:08:48.850Z,32.15
2016-04-25T13:09:49.055Z,32.73
2016-04-25T13:10:48.823Z,32.73
2016-04-25T13:11:48.858Z,31.29
2016-04-25T13:12:48.860Z,31.2
2016-04-25T13:13:48.877Z,29.19
2016-04-25T13:14:49.037Z,29.86
2016-04-25T13:16:01.619Z,29.96
2016-04-25T13:16:48.871Z,29.96
2016-04-25T13:17:48.896Z,30.82
2016-04-25T13:18:48.898Z,28.72
2016-04-25T13:19:49.026Z,29.56
2016-04-25T13:20:48.904Z,30.42
2016-04-25T13:21:48.937Z,29.37